createdAt,value
2018-06-05T00:00:30.274Z,1008.70
2018-06-05T00:01:30.273Z,1008.71
2018-06-05T00:02:30.268Z,1008.65
2018-06-05T00:03:30.267Z,1008.68
2018-06-05T00:04:30.270Z,1008.64
2018-06-05T00:05:30.271Z,1008.65
2018-06-05T00:06:30.269Z,1008.65
2018-06-05T00:07:30.267Z,1008.63
2018-06-05T00:08:30.260Z,1008.68
2018-06-05T00:09:30.260Z,1008.65
2018-06-05T00:10:30.259Z,1008.60
2018-06-05T00:11:30.257Z,1008.65
2018-06-05T00:12:30.261Z,1008.60
2018-06-05T00:13:30.259Z,1008.58
2018-06-05T00:14:30.258Z,1008.60
2018-06-05T00:15:30.257Z,1008.58
2018-06-05T00:16:30.250Z,1008.61
2018-06-05T00:17:30.249Z,1008.53
2018-06-05T00:18:30.253Z,1008.55
2018-06-05T00:19:30.252Z,1008.57
2018-06-05T00:20:30.246Z,1008.63
2018-06-05T00:21:30.244Z,1008.59
2018-06-05T00:22:30.244Z,1008.63
2018-06-05T00:23:30.248Z,1008.61
2018-06-05T00:24:30.245Z,1008.60
2018-06-05T00:25:30.246Z,1008.61
2018-06-05T00:26:30.247Z,1008.59
2018-06-05T00:27:30.246Z,1008.61
2018-06-05T00:28:30.236Z,1008.58
2018-06-05T00:29:30.235Z,1008.59
2018-06-05T00:30:30.234Z,1008.53
2018-06-05T00:31:30.233Z,1008.56
2018-06-05T00:32:30.237Z,1008.57
2018-06-05T00:33:30.235Z,1008.54
2018-06-05T00:34:30.229Z,1008.57
2018-06-05T00:35:30.228Z,1008.56
2018-06-05T00:36:30.232Z,1008.59
2018-06-05T00:37:30.233Z,1008.58
2018-06-05T00:38:30.229Z,1008.54
2018-06-05T00:39:30.228Z,1008.59
2018-06-05T00:40:30.222Z,1008.56
2018-06-05T00:41:30.221Z,1008.52
2018-06-05T00:42:30.220Z,1008.57
2018-06-05T00:43:30.219Z,1008.56
2018-06-05T00:44:30.221Z,1008.53
2018-06-05T00:45:30.220Z,1008.53
2018-06-05T00:46:30.221Z,1008.52
2018-06-05T00:47:30.219Z,1008.56
2018-06-05T00:48:30.213Z,1008.59
2018-06-05T00:49:30.212Z,1008.57
2018-06-05T00:50:30.216Z,1008.56
2018-06-05T00:51:30.216Z,1008.56
2018-06-05T00:52:30.210Z,1008.56
2018-06-05T00:53:30.207Z,1008.54
2018-06-05T00:54:30.206Z,1008.56
2018-06-05T00:55:30.205Z,1008.53
2018-06-05T00:56:30.207Z,1008.55
2018-06-05T00:57:30.213Z,1008.55
2018-06-05T00:58:30.209Z,1008.57
2018-06-05T00:59:30.205Z,1008.60
2018-06-05T01:00:30.201Z,1008.61
2018-06-05T01:01:30.198Z,1008.62
2018-06-05T01:02:30.200Z,1008.67
2018-06-05T01:03:30.196Z,1008.66
2018-06-05T01:04:30.199Z,1008.60
2018-06-05T01:05:30.198Z,1008.63
2018-06-05T01:06:30.192Z,1008.66
2018-06-05T01:07:30.192Z,1008.66
2018-06-05T01:08:30.195Z,1008.64
2018-06-05T01:09:30.193Z,1008.71
2018-06-05T01:10:30.192Z,1008.65
2018-06-05T01:11:30.192Z,1008.63
2018-06-05T01:12:30.185Z,1008.64
2018-06-05T01:13:30.184Z,1008.64
2018-06-05T01:14:30.184Z,1008.65
2018-06-05T01:15:30.183Z,1008.69
2018-06-05T01:16:30.186Z,1008.63
2018-06-05T01:17:30.185Z,1008.70
2018-06-05T01:18:30.185Z,1008.68
2018-06-05T01:19:30.185Z,1008.76
2018-06-05T01:20:30.177Z,1008.64
2018-06-05T01:21:30.176Z,1008.64
2018-06-05T01:22:30.180Z,1008.65
2018-06-05T01:23:30.182Z,1008.70
2018-06-05T01:24:30.172Z,1008.66
2018-06-05T01:25:30.173Z,1008.65
2018-06-05T01:26:30.172Z,1008.68
2018-06-05T01:27:30.170Z,1008.64
2018-06-05T01:28:30.172Z,1008.65
2018-06-05T01:29:30.172Z,1008.67
2018-06-05T01:30:30.172Z,1008.68
2018-06-05T01:31:30.170Z,1008.64
2018-06-05T01:32:30.165Z,1008.63
2018-06-05T01:33:30.168Z,1008.68
2018-06-05T01:34:30.163Z,1008.66
2018-06-05T01:35:30.162Z,1008.70
2018-06-05T01:36:30.165Z,1008.65
2018-06-05T01:37:30.164Z,1008.62
2018-06-05T01:38:30.212Z,1008.62
2018-06-05T01:39:30.159Z,1008.60
2018-06-05T01:40:30.165Z,1008.61
2018-06-05T01:41:30.160Z,1008.54
2018-06-05T01:42:30.159Z,1008.62
2018-06-05T01:43:30.158Z,1008.60
2018-06-05T01:44:30.153Z,1008.62
2018-06-05T01:45:30.151Z,1008.65
2018-06-05T01:46:30.150Z,1008.61
2018-06-05T01:47:30.149Z,1008.66
2018-06-05T01:48:30.152Z,1008.60
2018-06-05T01:49:30.151Z,1008.67
2018-06-05T01:50:30.155Z,1008.64
2018-06-05T01:51:30.151Z,1008.69
2018-06-05T01:52:30.145Z,1008.69
2018-06-05T01:53:30.143Z,1008.68
2018-06-05T01:54:30.148Z,1008.66
2018-06-05T01:55:30.155Z,1008.68
2018-06-05T01:56:30.140Z,1008.63
2018-06-05T01:57:30.145Z,1008.65
2018-06-05T01:58:30.138Z,1008.64
2018-06-05T01:59:30.137Z,1008.66
2018-06-05T02:00:30.139Z,1008.67
2018-06-05T02:01:30.139Z,1008.62
2018-06-05T02:02:30.141Z,1008.63
2018-06-05T02:03:30.137Z,1008.64
2018-06-05T02:04:30.131Z,1008.68
2018-06-05T02:05:30.130Z,1008.62
2018-06-05T02:06:30.129Z,1008.61
2018-06-05T02:07:30.130Z,1008.70
2018-06-05T02:08:30.133Z,1008.65
2018-06-05T02:09:30.132Z,1008.70
2018-06-05T02:10:30.125Z,1008.73
2018-06-05T02:11:30.125Z,1008.79
2018-06-05T02:12:30.129Z,1008.82
2018-06-05T02:13:30.129Z,1008.84
2018-06-05T02:14:30.126Z,1008.88
2018-06-05T02:15:30.125Z,1008.92
2018-06-05T02:16:30.118Z,1008.85
2018-06-05T02:17:30.120Z,1008.93
2018-06-05T02:18:30.118Z,1008.93
2018-06-05T02:19:30.117Z,1008.84
2018-06-05T02:20:30.121Z,1008.87
2018-06-05T02:21:30.119Z,1008.85
2018-06-05T02:22:30.118Z,1008.89
2018-06-05T02:23:30.117Z,1008.94
2018-06-05T02:24:30.115Z,1008.93
2018-06-05T02:25:30.110Z,1008.94
2018-06-05T02:26:30.115Z,1008.88
2018-06-05T02:27:30.115Z,1008.91
2018-06-05T02:28:30.111Z,1008.90
2018-06-05T02:29:30.106Z,1008.90
2018-06-05T02:30:30.104Z,1008.94
2018-06-05T02:31:30.103Z,1008.98
2018-06-05T02:32:30.108Z,1008.99
2018-06-05T02:33:30.105Z,1008.95
2018-06-05T02:34:30.108Z,1008.96
2018-06-05T02:35:30.112Z,1008.91
2018-06-05T02:36:30.098Z,1008.93
2018-06-05T02:37:30.097Z,1008.91
2018-06-05T02:38:30.097Z,1008.93
2018-06-05T02:39:30.096Z,1008.85
2018-06-05T02:40:30.103Z,1008.92
2018-06-05T02:41:30.097Z,1008.90
2018-06-05T02:42:30.093Z,1008.87
2018-06-05T02:43:30.094Z,1008.86
2018-06-05T02:44:30.094Z,1008.91
2018-06-05T02:45:30.093Z,1008.91
2018-06-05T02:46:30.094Z,1008.81
2018-06-05T02:47:30.095Z,1008.85
2018-06-05T02:48:30.085Z,1008.85
2018-06-05T02:49:30.085Z,1008.91
2018-06-05T02:50:30.085Z,1008.94
2018-06-05T02:51:30.084Z,1008.91
2018-06-05T02:52:30.087Z,1008.96
2018-06-05T02:53:30.086Z,1008.98
2018-06-05T02:54:30.084Z,1008.98
2018-06-05T02:55:30.082Z,1008.95
2018-06-05T02:56:30.077Z,1008.98
2018-06-05T02:57:30.076Z,1009.01
2018-06-05T02:58:30.081Z,1009.00
2018-06-05T02:59:30.079Z,1009.00
2018-06-05T03:00:30.073Z,1008.96
2018-06-05T03:01:30.072Z,1008.94
2018-06-05T03:02:30.072Z,1008.99
2018-06-05T03:03:30.070Z,1008.95
2018-06-05T03:04:30.074Z,1008.97
2018-06-05T03:05:30.076Z,1008.93
2018-06-05T03:06:30.073Z,1008.94
2018-06-05T03:07:30.070Z,1008.98
2018-06-05T03:08:30.064Z,1008.95
2018-06-05T03:09:30.064Z,1009.00
2018-06-05T03:10:30.062Z,1009.01
2018-06-05T03:11:30.061Z,1009.03
2018-06-05T03:12:30.064Z,1009.00
2018-06-05T03:13:30.063Z,1009.05
2018-06-05T03:14:30.058Z,1009.03
2018-06-05T03:15:30.057Z,1009.03
2018-06-05T03:16:30.061Z,1009.03
2018-06-05T03:17:30.062Z,1009.07
2018-06-05T03:18:30.059Z,1009.07
2018-06-05T03:19:30.059Z,1009.04
2018-06-05T03:20:30.051Z,1009.05
2018-06-05T03:21:30.053Z,1009.07
2018-06-05T03:22:30.050Z,1009.08
2018-06-05T03:23:30.049Z,1009.07
2018-06-05T03:24:30.051Z,1009.05
2018-06-05T03:25:30.051Z,1009.02
2018-06-05T03:26:30.053Z,1009.02
2018-06-05T03:27:30.048Z,1008.98
2018-06-05T03:28:30.043Z,1009.00
2018-06-05T03:29:30.042Z,1009.02
2018-06-05T03:30:30.046Z,1009.07
2018-06-05T03:31:30.045Z,1009.00
2018-06-05T03:32:30.038Z,1008.99
2018-06-05T03:33:30.037Z,1008.99
2018-06-05T03:34:30.037Z,1008.96
2018-06-05T03:35:30.036Z,1008.95
2018-06-05T03:36:30.040Z,1008.97
2018-06-05T03:37:30.039Z,1008.98
2018-06-05T03:38:30.036Z,1008.92
2018-06-05T03:39:30.036Z,1008.95
2018-06-05T03:40:30.030Z,1008.94
2018-06-05T03:41:30.028Z,1009.00
2018-06-05T03:42:30.029Z,1009.03
2018-06-05T03:43:30.027Z,1008.99
2018-06-05T03:44:30.030Z,1008.99
2018-06-05T03:45:30.030Z,1008.97
2018-06-05T03:46:30.026Z,1009.00
2018-06-05T03:47:30.024Z,1008.98
2018-06-05T03:48:30.027Z,1009.00
2018-06-05T03:49:30.026Z,1009.03
2018-06-05T03:50:30.024Z,1009.00
2018-06-05T03:51:30.023Z,1008.99
2018-06-05T03:52:30.017Z,1008.97
2018-06-05T03:53:30.016Z,1008.93
2018-06-05T03:54:30.015Z,1008.96
2018-06-05T03:55:30.017Z,1008.95
2018-06-05T03:56:30.033Z,1009.02
2018-06-05T03:57:30.017Z,1009.00
2018-06-05T03:58:30.016Z,1008.98
2018-06-05T03:59:30.015Z,1008.96
2018-06-05T04:00:30.008Z,1009.02
2018-06-05T04:01:30.007Z,1008.95
2018-06-05T04:02:30.012Z,1008.98
2018-06-05T04:03:30.012Z,1008.99
2018-06-05T04:04:30.005Z,1009.03
2018-06-05T04:05:30.003Z,1009.03
2018-06-05T04:06:30.002Z,1009.00
2018-06-05T04:07:30.001Z,1009.01
2018-06-05T04:08:30.003Z,1009.04
2018-06-05T04:09:30.003Z,1009.00
2018-06-05T04:10:30.002Z,1009.04
2018-06-05T04:11:30.002Z,1009.03
2018-06-05T04:12:29.996Z,1009.00
2018-06-05T04:13:29.994Z,1009.02
2018-06-05T04:14:29.995Z,1009.03
2018-06-05T04:15:29.995Z,1009.01
2018-06-05T04:16:30.000Z,1009.00
2018-06-05T04:17:29.995Z,1009.06
2018-06-05T04:18:29.990Z,1009.03
2018-06-05T04:19:29.989Z,1009.04
2018-06-05T04:20:29.993Z,1009.04
2018-06-05T04:21:29.992Z,1009.07
2018-06-05T04:22:29.990Z,1009.00
2018-06-05T04:23:29.989Z,1009.05
2018-06-05T04:24:29.983Z,1008.98
2018-06-05T04:25:29.982Z,1009.01
2018-06-05T04:26:29.982Z,1009.02
2018-06-05T04:27:30.010Z,1009.06
2018-06-05T04:28:29.990Z,1009.03
2018-06-05T04:29:29.982Z,1009.06
2018-06-05T04:30:29.983Z,1009.01
2018-06-05T04:31:29.982Z,1009.01
2018-06-05T04:32:29.977Z,1009.02
2018-06-05T04:33:29.977Z,1009.05
2018-06-05T04:34:29.980Z,1009.02
2018-06-05T04:35:29.979Z,1009.07
2018-06-05T04:36:29.972Z,1009.02
2018-06-05T04:37:29.975Z,1009.02
2018-06-05T04:38:29.971Z,1009.03
2018-06-05T04:39:29.973Z,1009.04
2018-06-05T04:40:29.973Z,1009.06
2018-06-05T04:41:29.972Z,1009.07
2018-06-05T04:42:29.973Z,1009.00
2018-06-05T04:43:29.972Z,1009.04
2018-06-05T04:44:29.965Z,1009.05
2018-06-05T04:45:29.965Z,1009.04
2018-06-05T04:46:29.964Z,1009.08
2018-06-05T04:47:29.964Z,1009.06
2018-06-05T04:48:29.966Z,1009.09
2018-06-05T04:49:29.966Z,1009.13
2018-06-05T04:50:29.961Z,1009.10
2018-06-05T04:51:29.960Z,1009.14
2018-06-05T04:52:29.965Z,1009.12
2018-06-05T04:53:29.967Z,1009.10
2018-06-05T04:54:29.963Z,1009.13
2018-06-05T04:55:29.963Z,1009.12
2018-06-05T04:56:29.957Z,1009.10
2018-06-05T04:57:29.957Z,1009.14
2018-06-05T04:58:29.958Z,1009.17
2018-06-05T04:59:29.955Z,1009.11
2018-06-05T05:00:29.959Z,1009.14
2018-06-05T05:01:29.959Z,1009.13
2018-06-05T05:02:29.957Z,1009.18
2018-06-05T05:03:29.957Z,1009.10
2018-06-05T05:04:29.950Z,1009.20
2018-06-05T05:05:29.950Z,1009.18
2018-06-05T05:06:29.954Z,1009.16
2018-06-05T05:07:29.953Z,1009.15
2018-06-05T05:08:29.948Z,1009.19
2018-06-05T05:09:29.948Z,1009.17
2018-06-05T05:10:29.948Z,1009.19
2018-06-05T05:11:29.949Z,1009.21
2018-06-05T05:12:29.952Z,1009.19
2018-06-05T05:13:29.950Z,1009.23
2018-06-05T05:14:29.960Z,1009.24
2018-06-05T05:15:29.951Z,1009.25
2018-06-05T05:16:29.946Z,1009.26
2018-06-05T05:17:29.944Z,1009.30
2018-06-05T05:18:29.943Z,1009.31
2018-06-05T05:19:29.942Z,1009.32
2018-06-05T05:20:29.946Z,1009.31
2018-06-05T05:21:29.945Z,1009.36
2018-06-05T05:22:29.941Z,1009.34
2018-06-05T05:23:29.940Z,1009.35
2018-06-05T05:24:29.945Z,1009.38
2018-06-05T05:25:29.944Z,1009.38
2018-06-05T05:26:29.945Z,1009.30
2018-06-05T05:27:29.944Z,1009.31
2018-06-05T05:28:29.938Z,1009.35
2018-06-05T05:29:29.937Z,1009.33
2018-06-05T05:30:29.937Z,1009.37
2018-06-05T05:31:29.938Z,1009.32
2018-06-05T05:32:29.941Z,1009.36
2018-06-05T05:33:29.940Z,1009.34
2018-06-05T05:34:29.939Z,1009.36
2018-06-05T05:35:29.939Z,1009.33
2018-06-05T05:36:29.934Z,1009.33
2018-06-05T05:37:29.933Z,1009.32
2018-06-05T05:38:29.939Z,1009.29
2018-06-05T05:39:29.937Z,1009.28
2018-06-05T05:40:29.933Z,1009.25
2018-06-05T05:41:29.933Z,1009.35
2018-06-05T05:42:29.932Z,1009.35
2018-06-05T05:43:29.932Z,1009.34
2018-06-05T05:44:29.939Z,1009.31
2018-06-05T05:45:29.937Z,1009.31
2018-06-05T05:46:29.931Z,1009.33
2018-06-05T05:47:29.931Z,1009.33
2018-06-05T05:48:29.934Z,1009.32
2018-06-05T05:49:29.934Z,1009.32
2018-06-05T05:50:29.935Z,1009.26
2018-06-05T05:51:29.935Z,1009.24
2018-06-05T05:52:29.933Z,1009.28
2018-06-05T05:53:29.931Z,1009.35
2018-06-05T05:54:29.934Z,1009.28
2018-06-05T05:55:29.936Z,1009.28
2018-06-05T05:56:29.929Z,1009.31
2018-06-05T05:57:29.930Z,1009.31
2018-06-05T05:58:29.929Z,1009.31
2018-06-05T05:59:29.929Z,1009.31
2018-06-05T06:00:29.932Z,1009.33
2018-06-05T06:01:29.933Z,1009.31
2018-06-05T06:02:29.934Z,1009.35
2018-06-05T06:03:29.934Z,1009.35
2018-06-05T06:04:29.928Z,1009.35
2018-06-05T06:05:29.928Z,1009.31
2018-06-05T06:06:29.929Z,1009.37
2018-06-05T06:07:29.929Z,1009.36
2018-06-05T06:08:29.934Z,1009.37
2018-06-05T06:09:29.934Z,1009.41
2018-06-05T06:10:29.929Z,1009.39
2018-06-05T06:11:29.929Z,1009.42
2018-06-05T06:12:29.934Z,1009.40
2018-06-05T06:13:29.934Z,1009.38
2018-06-05T06:14:29.933Z,1009.41
2018-06-05T06:15:29.933Z,1009.41
2018-06-05T06:16:29.928Z,1009.40
2018-06-05T06:17:29.929Z,1009.37
2018-06-05T06:18:29.930Z,1009.34
2018-06-05T06:19:29.929Z,1009.41
2018-06-05T06:20:29.933Z,1009.42
2018-06-05T06:21:29.933Z,1009.40
2018-06-05T06:22:29.936Z,1009.44
2018-06-05T06:23:29.934Z,1009.39
2018-06-05T06:24:29.928Z,1009.39
2018-06-05T06:25:29.929Z,1009.42
2018-06-05T06:26:29.936Z,1009.44
2018-06-05T06:27:29.936Z,1009.45
2018-06-05T06:28:29.929Z,1009.44
2018-06-05T06:29:29.930Z,1009.44
2018-06-05T06:30:29.930Z,1009.45
2018-06-05T06:31:29.930Z,1009.45
2018-06-05T06:32:29.934Z,1009.47
2018-06-05T06:33:29.934Z,1009.45
2018-06-05T06:34:29.936Z,1009.50
2018-06-05T06:35:29.935Z,1009.52
2018-06-05T06:36:29.930Z,1009.53
2018-06-05T06:37:29.931Z,1009.52
2018-06-05T06:38:29.935Z,1009.53
2018-06-05T06:39:29.932Z,1009.52
2018-06-05T06:40:29.938Z,1009.53
2018-06-05T06:41:29.937Z,1009.52
2018-06-05T06:42:29.932Z,1009.53
2018-06-05T06:43:29.932Z,1009.55
2018-06-05T06:44:29.937Z,1009.60
2018-06-05T06:45:29.937Z,1009.56
2018-06-05T06:46:29.936Z,1009.57
2018-06-05T06:47:29.937Z,1009.59
2018-06-05T06:48:29.938Z,1009.60
2018-06-05T06:49:29.934Z,1009.61
2018-06-05T06:50:29.932Z,1009.60
2018-06-05T06:51:29.935Z,1009.58
2018-06-05T06:52:29.938Z,1009.61
2018-06-05T06:53:29.938Z,1009.59
2018-06-05T06:54:29.975Z,1009.61
2018-06-05T06:55:29.938Z,1009.64
2018-06-05T06:56:29.933Z,1009.65
2018-06-05T06:57:29.933Z,1009.60
2018-06-05T06:58:29.938Z,1009.68
2018-06-05T06:59:29.938Z,1009.63
2018-06-05T07:00:29.933Z,1009.63
2018-06-05T07:01:29.933Z,1009.65
2018-06-05T07:02:29.933Z,1009.68
2018-06-05T07:03:29.981Z,1009.64
2018-06-05T07:04:29.940Z,1009.66
2018-06-05T07:05:29.938Z,1009.64
2018-06-05T07:06:29.939Z,1009.64
2018-06-05T07:07:29.943Z,1009.67
2018-06-05T07:08:29.934Z,1009.69
2018-06-05T07:09:29.935Z,1009.72
2018-06-05T07:10:29.934Z,1009.68
2018-06-05T07:11:29.934Z,1009.73
2018-06-05T07:12:29.939Z,1009.69
2018-06-05T07:13:29.938Z,1009.72
2018-06-05T07:14:29.934Z,1009.70
2018-06-05T07:15:29.935Z,1009.70
2018-06-05T07:16:29.937Z,1009.69
2018-06-05T07:17:29.937Z,1009.70
2018-06-05T07:18:29.940Z,1009.71
2018-06-05T07:19:29.940Z,1009.75
2018-06-05T07:20:29.933Z,1009.76
2018-06-05T07:21:29.933Z,1009.77
2018-06-05T07:22:29.934Z,1009.79
2018-06-05T07:23:29.934Z,1009.78
2018-06-05T07:24:29.939Z,1009.79
2018-06-05T07:25:29.938Z,1009.79
2018-06-05T07:26:29.941Z,1009.80
2018-06-05T07:27:29.938Z,1009.81
2018-06-05T07:28:29.933Z,1009.83
2018-06-05T07:29:29.933Z,1009.80
2018-06-05T07:30:30.015Z,1009.83
2018-06-05T07:31:29.938Z,1009.84
2018-06-05T07:32:29.937Z,1009.85
2018-06-05T07:33:29.933Z,1009.79
2018-06-05T07:34:29.936Z,1009.87
2018-06-05T07:35:29.934Z,1009.83
2018-06-05T07:36:29.939Z,1009.81
2018-06-05T07:37:29.939Z,1009.86
2018-06-05T07:38:29.938Z,1009.80
2018-06-05T07:39:29.938Z,1009.82
2018-06-05T07:40:29.932Z,1009.81
2018-06-05T07:41:29.933Z,1009.81
2018-06-05T07:42:29.933Z,1009.81
2018-06-05T07:43:29.934Z,1009.87
2018-06-05T07:44:29.948Z,1009.87
2018-06-05T07:45:29.937Z,1009.87
2018-06-05T07:46:29.933Z,1009.88
2018-06-05T07:47:29.933Z,1009.90
2018-06-05T07:48:29.938Z,1009.93
2018-06-05T07:49:29.939Z,1009.93
2018-06-05T07:50:29.938Z,1009.96
2018-06-05T07:51:29.939Z,1009.98
2018-06-05T07:52:29.933Z,1009.94
2018-06-05T07:53:29.933Z,1009.96
2018-06-05T07:54:29.933Z,1009.94
2018-06-05T07:55:29.934Z,1009.94
2018-06-05T07:56:29.938Z,1009.99
2018-06-05T07:57:29.943Z,1009.96
2018-06-05T07:58:29.940Z,1009.97
2018-06-05T07:59:29.939Z,1009.96
2018-06-05T08:00:29.935Z,1009.98
2018-06-05T08:01:29.934Z,1010.00
2018-06-05T08:02:29.940Z,1009.98
2018-06-05T08:03:29.942Z,1009.97
2018-06-05T08:04:29.934Z,1010.01
2018-06-05T08:05:29.935Z,1009.95
2018-06-05T08:06:29.935Z,1009.97
2018-06-05T08:07:29.936Z,1009.96
2018-06-05T08:08:29.940Z,1009.95
2018-06-05T08:09:29.940Z,1009.99
2018-06-05T08:10:29.940Z,1010.02
2018-06-05T08:11:29.942Z,1010.00
2018-06-05T08:12:29.937Z,1010.02
2018-06-05T08:13:29.936Z,1010.04
2018-06-05T08:14:29.937Z,1009.98
2018-06-05T08:15:29.941Z,1009.99
2018-06-05T08:16:29.945Z,1010.01
2018-06-05T08:17:29.943Z,1010.01
2018-06-05T08:18:30.003Z,1009.97
2018-06-05T08:19:29.942Z,1010.00
2018-06-05T08:20:29.945Z,1009.99
2018-06-05T08:21:29.944Z,1010.02
2018-06-05T08:22:29.945Z,1010.01
2018-06-05T08:23:29.945Z,1009.95
2018-06-05T08:24:29.948Z,1009.96
2018-06-05T08:25:29.941Z,1009.96
2018-06-05T08:26:29.943Z,1009.99
2018-06-05T08:27:29.944Z,1010.01
2018-06-05T08:28:29.947Z,1009.97
2018-06-05T08:29:29.948Z,1009.99
2018-06-05T08:30:29.950Z,1009.96
2018-06-05T08:31:29.951Z,1009.97
2018-06-05T08:32:29.946Z,1009.97
2018-06-05T08:33:29.947Z,1009.97
2018-06-05T08:34:29.952Z,1009.96
2018-06-05T08:35:29.954Z,1009.95
2018-06-05T08:36:29.947Z,1010.00
2018-06-05T08:37:29.948Z,1010.01
2018-06-05T08:38:29.949Z,1010.03
2018-06-05T08:39:29.949Z,1010.05
2018-06-05T08:40:29.953Z,1010.01
2018-06-05T08:41:29.954Z,1010.04
2018-06-05T08:42:29.955Z,1010.04
2018-06-05T08:43:29.955Z,1010.05
2018-06-05T08:44:29.951Z,1010.06
2018-06-05T08:45:29.954Z,1010.06
2018-06-05T08:46:29.952Z,1010.11
2018-06-05T08:47:29.954Z,1010.05
2018-06-05T08:48:29.958Z,1010.09
2018-06-05T08:49:29.959Z,1010.10
2018-06-05T08:50:29.957Z,1010.14
2018-06-05T08:51:29.956Z,1010.17
2018-06-05T08:52:29.961Z,1010.16
2018-06-05T08:53:29.961Z,1010.12
2018-06-05T08:54:29.963Z,1010.12
2018-06-05T08:55:29.962Z,1010.21
2018-06-05T08:56:29.959Z,1010.15
2018-06-05T08:57:29.959Z,1010.16
2018-06-05T08:58:29.960Z,1010.18
2018-06-05T08:59:29.961Z,1010.19
2018-06-05T09:00:29.967Z,1010.20
2018-06-05T09:01:29.967Z,1010.17
2018-06-05T09:02:29.968Z,1010.22
2018-06-05T09:03:29.970Z,1010.23
2018-06-05T09:04:29.965Z,1010.23
2018-06-05T09:05:29.975Z,1010.28
2018-06-05T09:06:29.972Z,1010.29
2018-06-05T09:07:29.973Z,1010.30
2018-06-05T09:08:29.969Z,1010.31
2018-06-05T09:09:29.971Z,1010.29
2018-06-05T09:10:29.975Z,1010.28
2018-06-05T09:11:29.981Z,1010.27
2018-06-05T09:12:29.981Z,1010.27
2018-06-05T09:13:29.981Z,1010.31
2018-06-05T09:14:29.982Z,1010.22
2018-06-05T09:15:29.984Z,1010.23
2018-06-05T09:16:29.981Z,1010.22
2018-06-05T09:17:29.980Z,1010.29
2018-06-05T09:18:29.981Z,1010.31
2018-06-05T09:19:29.982Z,1010.29
2018-06-05T09:20:30.014Z,1010.30
2018-06-05T09:21:29.988Z,1010.27
2018-06-05T09:22:29.986Z,1010.30
2018-06-05T09:23:29.987Z,1010.28
2018-06-05T09:24:29.993Z,1010.27
2018-06-05T09:25:29.996Z,1010.29
2018-06-05T09:26:29.998Z,1010.28
2018-06-05T09:27:29.997Z,1010.28
2018-06-05T09:28:29.993Z,1010.30
2018-06-05T09:29:29.993Z,1010.25
2018-06-05T09:30:29.996Z,1010.27
2018-06-05T09:31:29.997Z,1010.29
2018-06-05T09:32:30.001Z,1010.30
2018-06-05T09:33:30.004Z,1010.30
2018-06-05T09:34:30.053Z,1010.27
2018-06-05T09:35:30.007Z,1010.30
2018-06-05T09:36:30.001Z,1010.30
2018-06-05T09:37:30.006Z,1010.28
2018-06-05T09:38:30.008Z,1010.34
2018-06-05T09:39:30.081Z,1010.33
2018-06-05T09:40:30.006Z,1010.33
2018-06-05T09:41:30.007Z,1010.38
2018-06-05T09:42:30.008Z,1010.37
2018-06-05T09:43:30.009Z,1010.44
2018-06-05T09:44:30.015Z,1010.43
2018-06-05T09:45:30.017Z,1010.40
2018-06-05T09:46:30.018Z,1010.41
2018-06-05T09:47:30.019Z,1010.42
2018-06-05T09:48:30.019Z,1010.46
2018-06-05T09:49:30.020Z,1010.42
2018-06-05T09:50:30.017Z,1010.41
2018-06-05T09:51:30.018Z,1010.45
2018-06-05T09:52:30.074Z,1010.42
2018-06-05T09:53:30.024Z,1010.44
2018-06-05T09:54:30.020Z,1010.45
2018-06-05T09:55:30.022Z,1010.46
2018-06-05T09:56:30.027Z,1010.44
2018-06-05T09:57:30.028Z,1010.48
2018-06-05T09:58:30.207Z,1010.43
2018-06-05T09:59:30.031Z,1010.50
2018-06-05T10:00:30.026Z,1010.45
2018-06-05T10:01:30.027Z,1010.41
2018-06-05T10:02:30.029Z,1010.42
2018-06-05T10:03:30.030Z,1010.40
2018-06-05T10:04:30.036Z,1010.38
2018-06-05T10:05:30.037Z,1010.38
2018-06-05T10:06:30.037Z,1010.41
2018-06-05T10:07:30.038Z,1010.40
2018-06-05T10:08:30.036Z,1010.40
2018-06-05T10:09:30.035Z,1010.41
2018-06-05T10:10:30.041Z,1010.38
2018-06-05T10:11:30.043Z,1010.48
2018-06-05T10:12:30.060Z,1010.43
2018-06-05T10:13:30.040Z,1010.44
2018-06-05T10:14:30.041Z,1010.46
2018-06-05T10:15:30.043Z,1010.43
2018-06-05T10:16:30.048Z,1010.51
2018-06-05T10:17:30.050Z,1010.48
2018-06-05T10:18:30.053Z,1010.51
2018-06-05T10:19:30.053Z,1010.46
2018-06-05T10:20:30.048Z,1010.47
2018-06-05T10:21:30.050Z,1010.44
2018-06-05T10:22:30.050Z,1010.46
2018-06-05T10:23:30.053Z,1010.49
2018-06-05T10:24:30.057Z,1010.47
2018-06-05T10:25:30.058Z,1010.49
2018-06-05T10:26:30.057Z,1010.50
2018-06-05T10:27:30.057Z,1010.47
2018-06-05T10:28:30.062Z,1010.49
2018-06-05T10:29:30.063Z,1010.49
2018-06-05T10:30:30.112Z,1010.50
2018-06-05T10:31:30.066Z,1010.51
2018-06-05T10:32:30.063Z,1010.51
2018-06-05T10:33:30.065Z,1010.48
2018-06-05T10:34:30.066Z,1010.52
2018-06-05T10:35:30.068Z,1010.47
2018-06-05T10:36:30.073Z,1010.45
2018-06-05T10:37:30.076Z,1010.50
2018-06-05T10:38:30.077Z,1010.47
2018-06-05T10:39:30.079Z,1010.43
2018-06-05T10:40:30.074Z,1010.46
2018-06-05T10:41:30.076Z,1010.44
2018-06-05T10:42:30.087Z,1010.38
2018-06-05T10:43:30.088Z,1010.40
2018-06-05T10:44:30.080Z,1010.39
2018-06-05T10:45:30.081Z,1010.42
2018-06-05T10:46:30.088Z,1010.35
2018-06-05T10:47:30.087Z,1010.35
2018-06-05T10:48:30.092Z,1010.39
2018-06-05T10:49:30.094Z,1010.42
2018-06-05T10:50:30.095Z,1010.40
2018-06-05T10:51:30.097Z,1010.41
2018-06-05T10:52:30.100Z,1010.42
2018-06-05T10:53:30.096Z,1010.40
2018-06-05T10:54:30.098Z,1010.41
2018-06-05T10:55:30.101Z,1010.42
2018-06-05T10:56:30.105Z,1010.45
2018-06-05T10:57:30.108Z,1010.41
2018-06-05T10:58:30.106Z,1010.41
2018-06-05T10:59:30.108Z,1010.37
2018-06-05T11:00:30.181Z,1010.41
2018-06-05T11:01:30.141Z,1010.39
2018-06-05T11:02:30.121Z,1010.34
2018-06-05T11:03:30.123Z,1010.37
2018-06-05T11:04:30.119Z,1010.36
2018-06-05T11:05:30.122Z,1010.36
2018-06-05T11:06:30.127Z,1010.36
2018-06-05T11:07:30.126Z,1010.36
2018-06-05T11:08:30.133Z,1010.34
2018-06-05T11:09:30.134Z,1010.33
2018-06-05T11:10:30.138Z,1010.31
2018-06-05T11:11:30.141Z,1010.32
2018-06-05T11:12:30.137Z,1010.37
2018-06-05T11:13:30.140Z,1010.33
2018-06-05T11:14:30.147Z,1010.34
2018-06-05T11:15:30.149Z,1010.28
2018-06-05T11:16:30.147Z,1010.31
2018-06-05T11:17:30.149Z,1010.32
2018-06-05T11:18:30.152Z,1010.32
2018-06-05T11:19:30.155Z,1010.27
2018-06-05T11:20:30.160Z,1010.28
2018-06-05T11:21:30.162Z,1010.27
2018-06-05T11:22:30.166Z,1010.29
2018-06-05T11:23:30.171Z,1010.25
2018-06-05T11:24:30.167Z,1010.29
2018-06-05T11:25:30.169Z,1010.26
2018-06-05T11:26:30.174Z,1010.25
2018-06-05T11:27:30.181Z,1010.29
2018-06-05T11:28:30.182Z,1010.28
2018-06-05T11:29:30.184Z,1010.29
2018-06-05T11:30:30.186Z,1010.26
2018-06-05T11:31:30.186Z,1010.26
2018-06-05T11:32:30.192Z,1010.26
2018-06-05T11:33:30.195Z,1010.26
2018-06-05T11:34:30.197Z,1010.25
2018-06-05T11:35:30.201Z,1010.19
2018-06-05T11:36:30.200Z,1010.26
2018-06-05T11:37:30.201Z,1010.20
2018-06-05T11:38:30.204Z,1010.24
2018-06-05T11:39:30.207Z,1010.25
2018-06-05T11:40:30.215Z,1010.22
2018-06-05T11:41:30.222Z,1010.26
2018-06-05T11:42:30.221Z,1010.25
2018-06-05T11:43:30.224Z,1010.25
2018-06-05T11:44:30.221Z,1010.27
2018-06-05T11:45:30.224Z,1010.17
2018-06-05T11:46:30.233Z,1010.25
2018-06-05T11:47:30.238Z,1010.27
2018-06-05T11:48:30.233Z,1010.22
2018-06-05T11:49:30.236Z,1010.22
2018-06-05T11:50:30.239Z,1010.23
2018-06-05T11:51:30.243Z,1010.18
2018-06-05T11:52:30.250Z,1010.18
2018-06-05T11:53:30.252Z,1010.17
2018-06-05T11:54:30.256Z,1010.16
2018-06-05T11:55:30.259Z,1010.12
2018-06-05T11:56:30.258Z,1010.19
2018-06-05T11:57:30.261Z,1010.18
2018-06-05T11:58:30.266Z,1010.14
2018-06-05T11:59:30.269Z,1010.14
2018-06-05T12:00:30.275Z,1010.09
2018-06-05T12:01:30.279Z,1010.13
2018-06-05T12:02:30.280Z,1010.08
2018-06-05T12:03:30.296Z,1010.05
2018-06-05T12:04:30.290Z,1010.02
2018-06-05T12:05:30.296Z,1010.06